Time;durP1;ratioP1;P1;durP2;ratioP2;P2;SDS_P1;SDS_P2;PMS_P1;PMS_P2;Temp;Humidity;BMP_temperature;BMP_pressure;BME280_temperature;BME280_humidity;BME280_pressure;Samples;Min_cycle;Max_cycle;Signal;HPM_P1;HPM_P2
2020/12/02 00:00:55;;;;;;;20.02;10.18;;;0.80;99.90;;;;;;21001213;28;20029;-81
2020/12/02 00:11:00;;;;;;;23.67;10.68;;;0.80;99.90;;;;;;21043040;22;20130;-75
2020/12/02 00:21:01;;;;;;;24.52;10.52;;;0.80;99.90;;;;;;21076986;28;20024;-75
2020/12/02 00:31:02;;;;;;;29.75;10.82;;;0.80;99.90;;;;;;21058141;28;20035;-76
2020/12/02 00:41:04;;;;;;;27.10;10.85;;;0.80;99.90;;;;;;21074624;28;20076;-76
2020/12/02 00:51:05;;;;;;;38.42;14.18;;;0.70;99.90;;;;;;21075016;28;20053;-76
2020/12/02 01:01:10;;;;;;;31.33;12.25;;;0.70;99.90;;;;;;21074338;28;20039;-76
2020/12/02 01:11:20;;;;;;;32.97;13.50;;;0.70;99.90;;;;;;21073485;28;20509;-76
2020/12/02 01:21:34;;;;;;;29.50;12.88;;;0.80;99.90;;;;;;21073362;28;20036;-76
2020/12/02 01:31:36;;;;;;;24.95;12.02;;;0.90;99.90;;;;;;21072999;28;20027;-74
2020/12/02 01:41:37;;;;;;;24.10;10.70;;;1.00;99.90;;;;;;21054598;28;20082;-76
2020/12/02 01:51:52;;;;;;;;;;;1.00;99.90;;;;;;21079695;28;20505;-76
2020/12/02 02:02:09;;;;;;;25.40;11.77;;;1.00;99.90;;;;;;21088002;28;20008;-76
2020/12/02 02:12:27;;;;;;;26.20;10.85;;;0.90;99.90;;;;;;21087177;28;20122;-76
2020/12/02 02:22:28;;;;;;;26.23;12.15;;;0.80;99.90;;;;;;21086511;28;20101;-76
2020/12/02 02:32:28;;;;;;;;;;;0.90;99.90;;;;;;21086232;28;20040;-76
2020/12/02 02:42:33;;;;;;;29.50;12.38;;;0.90;99.90;;;;;;21085156;28;20378;-75
2020/12/02 02:52:34;;;;;;;28.67;12.68;;;0.90;99.90;;;;;;21084116;28;20114;-75
2020/12/02 03:02:35;;;;;;;;;;;0.90;99.90;;;;;;21082723;28;20071;-75
2020/12/02 03:12:36;;;;;;;32.53;12.82;;;0.80;99.90;;;;;;21082263;28;20291;-75
2020/12/02 03:22:37;;;;;;;37.28;14.90;;;0.90;99.90;;;;;;21081590;28;20028;-75
2020/12/02 03:32:38;;;;;;;31.20;13.50;;;0.90;99.90;;;;;;21062601;28;20563;-75
2020/12/02 03:42:39;;;;;;;;;;;0.90;99.90;;;;;;21080305;28;20024;-76
2020/12/02 03:52:41;;;;;;;29.55;12.95;;;1.00;99.90;;;;;;21079256;28;20385;-75
2020/12/02 04:02:41;;;;;;;;;;;1.00;99.90;;;;;;21078814;28;20047;-75
2020/12/02 04:12:44;;;;;;;26.80;12.63;;;1.00;99.90;;;;;;21059471;28;20390;-75
2020/12/02 04:22:47;;;;;;;35.20;13.75;;;1.00;99.90;;;;;;21076647;28;20294;-75
2020/12/02 04:32:48;;;;;;;26.63;11.45;;;1.00;99.90;;;;;;21057960;28;20035;-76
2020/12/02 04:42:55;;;;;;;34.13;11.80;;;1.00;99.90;;;;;;21070234;28;20042;-75
2020/12/02 04:53:23;;;;;;;33.45;12.85;;;1.10;99.90;;;;;;21039663;28;20059;-75
2020/12/02 05:03:24;;;;;;;45.58;13.73;;;1.10;99.90;;;;;;21007755;28;20048;-75
2020/12/02 05:13:25;;;;;;;;;;;0.90;99.90;;;;;;21031729;28;20028;-75
2020/12/02 05:23:26;;;;;;;32.70;13.40;;;0.90;99.90;;;;;;21070195;28;19920;-76
2020/12/02 05:33:30;;;;;;;32.95;12.77;;;0.80;99.90;;;;;;21019369;28;20031;-75
2020/12/02 05:43:46;;;;;;;31.70;12.00;;;0.80;99.90;;;;;;21019361;28;20044;-76
2020/12/02 05:54:02;;;;;;;29.38;12.15;;;0.90;99.90;;;;;;21042161;28;20027;-75
2020/12/02 06:04:03;;;;;;;20.50;9.95;;;0.90;99.90;;;;;;21069977;28;20494;-75
2020/12/02 06:14:32;;;;;;;27.20;10.85;;;1.00;99.90;;;;;;21111640;22;20527;-82
2020/12/02 06:24:43;;;;;;;30.38;11.52;;;1.00;99.90;;;;;;21062893;28;20082;-82
2020/12/02 06:34:44;;;;;;;22.20;10.70;;;1.00;99.90;;;;;;21072475;28;20051;-82
2020/12/02 06:44:54;;;;;;;;;;;0.80;99.90;;;;;;21051380;28;20274;-82
2020/12/02 06:55:08;;;;;;;25.30;9.95;;;0.90;99.90;;;;;;21071461;28;19918;-82
2020/12/02 07:05:41;;;;;;;27.10;11.30;;;0.90;99.90;;;;;;21055683;28;20424;-81
2020/12/02 07:15:42;;;;;;;34.80;14.35;;;0.70;99.90;;;;;;21057767;28;20040;-81
2020/12/02 07:25:44;;;;;;;40.45;16.05;;;0.80;99.90;;;;;;21053573;28;20032;-81
2020/12/02 07:35:47;;;;;;;40.97;15.93;;;1.00;99.90;;;;;;21051300;28;20035;-83
2020/12/02 07:45:49;;;;;;;35.20;14.98;;;1.00;99.90;;;;;;21066355;28;20035;-81
2020/12/02 07:55:51;;;;;;;53.45;20.90;;;1.10;99.90;;;;;;21067570;28;20039;-81
2020/12/02 08:06:32;;;;;;;38.22;18.17;;;1.20;99.90;;;;;;21068216;28;20279;-83
2020/12/02 08:16:43;;;;;;;40.42;18.88;;;1.30;99.90;;;;;;21058735;28;20085;-83
2020/12/02 08:26:44;;;;;;;39.13;16.90;;;1.40;99.90;;;;;;21051846;28;20059;-82
2020/12/02 08:36:47;;;;;;;;;;;1.60;99.90;;;;;;21048926;28;20032;-81
2020/12/02 08:47:08;;;;;;;41.50;17.95;;;1.60;99.90;;;;;;21065599;28;19908;-81
2020/12/02 08:57:11;;;;;;;37.20;14.85;;;1.70;99.90;;;;;;21062400;28;20036;-82
2020/12/02 09:07:13;;;;;;;32.28;13.52;;;1.80;99.90;;;;;;21060450;28;20039;-82
2020/12/02 09:17:14;;;;;;;29.42;13.38;;;1.80;99.90;;;;;;21044202;28;20032;-83
2020/12/02 09:27:15;;;;;;;;;;;2.00;99.90;;;;;;21060918;28;20182;-83
2020/12/02 09:37:16;;;;;;;17.90;8.85;;;1.80;99.90;;;;;;21059015;28;19994;-82
2020/12/02 09:47:18;;;;;;;;;;;1.80;99.90;;;;;;21079300;28;20536;-82
2020/12/02 09:57:26;;;;;;;14.23;7.23;;;2.00;99.90;;;;;;21042154;28;19915;-83
2020/12/02 10:07:52;;;;;;;17.60;9.20;;;2.30;99.90;;;;;;21057379;28;20103;-83
2020/12/02 10:18:41;;;;;;;15.18;8.27;;;2.50;99.90;;;;;;21078166;28;20032;-83
2020/12/02 10:28:58;;;;;;;18.20;9.52;;;2.80;99.90;;;;;;21059243;28;20039;-81
2020/12/02 10:39:05;;;;;;;13.98;7.53;;;3.00;99.90;;;;;;21073066;28;20093;-83
2020/12/02 10:49:28;;;;;;;12.85;6.93;;;3.20;99.90;;;;;;21053384;28;20029;-82
2020/12/02 10:59:29;;;;;;;13.90;8.23;;;3.30;99.90;;;;;;21053449;28;20036;-84
2020/12/02 11:09:55;;;;;;;15.10;7.87;;;3.30;99.90;;;;;;21051324;28;20106;-83
2020/12/02 11:20:26;;;;;;;10.98;5.45;;;3.20;99.90;;;;;;21066125;28;20286;-83
2020/12/02 11:30:34;;;;;;;10.07;5.60;;;3.00;99.90;;;;;;21041912;28;20078;-82
2020/12/02 11:41:00;;;;;;;11.60;5.20;;;3.30;99.90;;;;;;21042590;28;20028;-83
2020/12/02 11:51:17;;;;;;;10.18;5.15;;;3.10;99.90;;;;;;21045867;28;20516;-84
2020/12/02 12:01:43;;;;;;;12.68;5.60;;;3.00;99.90;;;;;;21061284;28;20392;-83
2020/12/02 12:11:45;;;;;;;14.18;6.15;;;3.10;99.90;;;;;;21036507;22;20440;-74
2020/12/02 12:21:58;;;;;;;19.67;8.57;;;3.20;99.90;;;;;;21059388;28;20036;-75
2020/12/02 12:32:10;;;;;;;19.92;9.20;;;3.20;99.90;;;;;;21076202;28;20028;-74
2020/12/02 12:42:12;;;;;;;11.73;5.43;;;3.30;99.90;;;;;;21057456;28;20494;-74
2020/12/02 12:52:16;;;;;;;13.85;5.55;;;3.00;99.90;;;;;;21057279;28;20047;-74
2020/12/02 13:02:23;;;;;;;23.27;9.15;;;3.10;99.90;;;;;;21074557;28;20040;-74
2020/12/02 13:12:52;;;;;;;20.63;7.63;;;3.10;99.90;;;;;;21055893;28;20032;-74
2020/12/02 13:23:09;;;;;;;14.55;5.70;;;3.00;99.90;;;;;;21073769;28;20028;-74
2020/12/02 13:33:15;;;;;;;12.95;5.85;;;2.70;99.90;;;;;;21073162;28;20024;-74
2020/12/02 13:43:31;;;;;;;15.13;5.93;;;2.60;99.90;;;;;;21072849;28;20043;-74
2020/12/02 13:53:35;;;;;;;14.02;5.65;;;2.60;99.90;;;;;;21089306;28;20030;-74
2020/12/02 14:03:56;;;;;;;15.27;6.22;;;2.50;99.90;;;;;;21070301;28;20115;-74
2020/12/02 14:13:56;;;;;;;12.30;6.47;;;2.50;99.90;;;;;;21087487;28;20059;-74
2020/12/02 14:23:58;;;;;;;11.63;5.90;;;2.30;99.90;;;;;;21086816;28;20036;-74
2020/12/02 14:33:58;;;;;;;16.33;6.15;;;2.30;99.90;;;;;;21067661;28;20289;-73
2020/12/02 14:43:59;;;;;;;13.32;6.38;;;2.20;99.90;;;;;;21084952;28;20024;-73
2020/12/02 14:54:00;;;;;;;13.63;6.57;;;2.10;99.90;;;;;;21083914;28;20119;-74
2020/12/02 15:04:01;;;;;;;13.87;6.73;;;2.00;99.90;;;;;;21081987;28;20481;-73
2020/12/02 15:14:02;;;;;;;11.63;6.23;;;2.00;99.90;;;;;;21082534;28;20278;-73
2020/12/02 15:24:04;;;;;;;22.13;10.73;;;1.90;99.90;;;;;;21081464;28;20353;-73
2020/12/02 15:34:05;;;;;;;15.40;7.93;;;1.80;99.90;;;;;;21080539;28;20085;-73
2020/12/02 15:44:05;;;;;;;20.52;9.85;;;1.90;99.90;;;;;;21059954;28;20394;-73
2020/12/02 15:54:21;;;;;;;37.67;17.40;;;1.80;99.90;;;;;;21028211;28;20032;-73
2020/12/02 16:04:36;;;;;;;30.35;13.75;;;1.80;99.90;;;;;;20975314;28;20116;-74
2020/12/02 16:14:37;;;;;;;19.85;8.90;;;1.70;99.90;;;;;;21004858;28;20040;-73
2020/12/02 16:24:38;;;;;;;;;;;1.50;99.90;;;;;;21034535;28;20123;-74
2020/12/02 16:34:40;;;;;;;36.67;17.77;;;1.40;99.90;;;;;;21056349;28;20010;-74
2020/12/02 16:44:59;;;;;;;47.53;19.30;;;1.20;99.90;;;;;;21055242;28;20040;-74
2020/12/02 16:55:18;;;;;;;20.45;11.20;;;1.20;99.90;;;;;;21055156;28;20024;-73
2020/12/02 17:05:24;;;;;;;28.52;10.75;;;1.10;99.90;;;;;;21055093;28;20162;-74
2020/12/02 17:15:46;;;;;;;32.13;11.20;;;1.20;99.90;;;;;;21053797;28;20118;-74
2020/12/02 17:26:02;;;;;;;;;;;1.40;99.90;;;;;;21053035;28;20895;-74
2020/12/02 17:36:45;;;;;;;16.38;7.35;;;1.40;99.90;;;;;;21014159;28;19930;-74
2020/12/02 17:46:46;;;;;;;17.33;7.28;;;1.50;99.90;;;;;;20998142;28;20132;-75
2020/12/02 17:56:48;;;;;;;;;;;1.30;99.90;;;;;;21006900;28;20040;-74
2020/12/02 18:07:18;;;;;;;13.13;6.70;;;1.40;99.90;;;;;;20990757;28;19916;-73
2020/12/02 18:17:45;;;;;;;24.23;8.75;;;1.10;99.90;;;;;;21127542;23;20048;-79
2020/12/02 18:28:24;;;;;;;15.93;7.32;;;1.10;99.90;;;;;;21015787;28;20032;-79
2020/12/02 18:38:55;;;;;;;20.92;8.43;;;1.10;99.90;;;;;;21056432;28;20561;-79
2020/12/02 18:49:15;;;;;;;16.50;8.25;;;0.90;99.90;;;;;;21089034;28;20065;-78
2020/12/02 18:59:38;;;;;;;18.42;8.38;;;0.90;99.90;;;;;;21074049;28;20505;-80
2020/12/02 19:09:39;;;;;;;18.27;8.80;;;0.80;99.90;;;;;;21083032;28;20490;-80
2020/12/02 19:19:52;;;;;;;27.48;10.48;;;0.80;99.90;;;;;;21083533;28;20377;-81
2020/12/02 19:30:11;;;;;;;19.45;9.00;;;0.90;99.90;;;;;;20994090;28;20044;-81
2020/12/02 19:40:22;;;;;;;21.65;8.82;;;0.80;99.90;;;;;;21011035;28;20651;-81
2020/12/02 19:50:29;;;;;;;22.73;11.25;;;0.80;99.90;;;;;;21008501;28;20072;-82
2020/12/02 20:00:44;;;;;;;23.52;11.40;;;0.80;99.90;;;;;;21067112;28;20032;-81
2020/12/02 20:11:11;;;;;;;20.52;10.85;;;0.70;99.90;;;;;;21072828;28;20039;-81
2020/12/02 20:21:33;;;;;;;25.38;10.88;;;0.80;99.90;;;;;;21069182;28;20128;-79
2020/12/02 20:31:39;;;;;;;28.92;11.70;;;0.80;99.90;;;;;;21052276;28;20036;-80
2020/12/02 20:41:45;;;;;;;19.88;9.75;;;0.70;99.90;;;;;;21061159;28;20063;-80
2020/12/02 20:51:56;;;;;;;23.25;10.73;;;0.80;99.90;;;;;;21027111;28;20032;-81
2020/12/02 21:01:59;;;;;;;;;;;0.90;99.90;;;;;;21086813;28;20032;-81
2020/12/02 21:12:02;;;;;;;22.25;10.55;;;1.00;99.90;;;;;;21113469;28;19919;-82
2020/12/02 21:22:21;;;;;;;20.98;11.55;;;1.10;99.90;;;;;;21105444;28;20024;-82
2020/12/02 21:32:42;;;;;;;24.00;10.18;;;1.20;99.90;;;;;;21056542;28;20074;-80
2020/12/02 21:43:04;;;;;;;20.20;9.57;;;1.00;99.90;;;;;;21060595;28;20036;-81
2020/12/02 21:53:27;;;;;;;29.98;12.23;;;0.90;99.90;;;;;;21105064;28;20032;-83
2020/12/02 22:03:55;;;;;;;27.52;12.43;;;1.00;99.90;;;;;;21042632;28;20036;-81
2020/12/02 22:14:17;;;;;;;37.65;14.10;;;1.00;99.90;;;;;;21048984;28;20040;-82
2020/12/02 22:24:36;;;;;;;30.00;12.63;;;1.00;99.90;;;;;;21040583;28;20039;-82
2020/12/02 22:35:07;;;;;;;39.00;14.52;;;1.00;99.90;;;;;;21040245;28;20059;-81
2020/12/02 22:45:19;;;;;;;36.00;14.20;;;1.00;99.90;;;;;;21031534;28;20040;-82
2020/12/02 22:55:32;;;;;;;34.28;14.93;;;0.90;99.90;;;;;;21044494;28;20044;-79
2020/12/02 23:05:39;;;;;;;32.72;14.18;;;0.90;99.90;;;;;;21079429;28;20032;-80
2020/12/02 23:16:12;;;;;;;37.83;15.32;;;0.80;99.90;;;;;;21088462;28;20028;-80
2020/12/02 23:26:14;;;;;;;33.50;14.75;;;0.90;99.90;;;;;;21099090;28;20109;-80
2020/12/02 23:36:22;;;;;;;38.30;14.50;;;0.90;99.90;;;;;;21088240;28;20032;-79
2020/12/02 23:46:32;;;;;;;34.03;14.20;;;0.80;99.90;;;;;;21099309;28;20058;-80
2020/12/02 23:56:33;;;;;;;35.65;14.57;;;0.90;99.90;;;;;;21095911;28;20031;-79
